Blue Bay — V2CE6 — position and weather

sailwx.info

Track history (hours):
 
Tides and Currents Weather Stations Pressure Air Temp Water Temp Dewpoint Dewpoint Depression Visibility Wind Speed Wind Dir Waves Ship Positions

Blue Bay

Last reported at 2014-Sep-17 04:30 UTC. Time now 2014-Sep-17 05:31 UTC.
Position N 51°43' W 002°29'.

Length 89 m; draft 3.5 m.

Type: Cargo ship. MMSI: 304519000.

Date/timePositionNaut miles runAvg speedWind from/ knotsBaromVisibWave heightAir tempDewpointWater temp
2014-Sep-17 04:30N 51°43' W 002°29'0 0.0
2014-Sep-17 03:33N 51°43' W 002°29'0 0.0
2014-Sep-17 02:33N 51°43' W 002°29'0 0.0
2014-Sep-17 01:33N 51°43' W 002°29'0 0.0
2014-Sep-17 00:21N 51°43' W 002°29'0 0.0
2014-Sep-16 23:33N 51°43' W 002°29'0 0.0
2014-Sep-16 22:30N 51°43' W 002°29'0 0.0
2014-Sep-16 21:33N 51°43' W 002°29'0 0.2
2014-Sep-16 20:27N 51°43' W 002°29'0 0.0
2014-Sep-16 19:27N 51°43' W 002°29'0 0.0
2014-Sep-16 18:33N 51°43' W 002°29'0 0.0
2014-Sep-16 17:33N 51°43' W 002°29'0 0.0
2014-Sep-16 16:27N 51°43' W 002°29'0 0.0
2014-Sep-16 15:27N 51°43' W 002°29'0 0.0
2014-Sep-16 14:27N 51°43' W 002°29'0 0.0
2014-Sep-16 13:30N 51°43' W 002°29'0 0.0
2014-Sep-16 12:30N 51°43' W 002°29'0 0.0
2014-Sep-16 11:27N 51°43' W 002°29'0 0.0
2014-Sep-16 10:33N 51°43' W 002°29'0 0.0
2014-Sep-16 09:30N 51°43' W 002°29'0 0.0
2014-Sep-16 08:33N 51°43' W 002°29'0 0.0
2014-Sep-16 07:30N 51°43' W 002°29'0 0.0
2014-Sep-16 06:24N 51°43' W 002°29'0 0.0
2014-Sep-16 05:33N 51°43' W 002°29'0 0.0
2014-Sep-16 04:27N 51°43' W 002°29'0 0.0
2014-Sep-16 03:33N 51°43' W 002°29'0 0.0
2014-Sep-16 02:21N 51°43' W 002°29'0 0.0
2014-Sep-16 01:33N 51°43' W 002°29'0 0.0
2014-Sep-16 00:30N 51°43' W 002°29'0 0.0
2014-Sep-15 23:33N 51°43' W 002°29'0 0.0
2014-Sep-15 22:33N 51°43' W 002°29'0 0.0
2014-Sep-15 21:33N 51°43' W 002°29'0 0.0
2014-Sep-15 20:30N 51°43' W 002°29'0 0.0
2014-Sep-15 19:33N 51°43' W 002°29'0 0.0
2014-Sep-15 18:30N 51°43' W 002°29'0 0.0
2014-Sep-15 17:33N 51°43' W 002°29'0 0.0
2014-Sep-15 16:33N 51°43' W 002°29'0 0.0
2014-Sep-15 15:33N 51°43' W 002°29'0 0.0
2014-Sep-15 14:30N 51°43' W 002°29'0 0.0
2014-Sep-15 13:33N 51°43' W 002°29'0 0.0
2014-Sep-15 12:12N 51°43' W 002°29'0 0.0
2014-Sep-15 11:33N 51°43' W 002°29'0 0.0
2014-Sep-15 10:34N 51°43' W 002°29'0 0.0
2014-Sep-15 09:33N 51°43' W 002°29'0 0.0
2014-Sep-15 08:33N 51°43' W 002°29'0 0.0
2014-Sep-15 07:03N 51°43' W 002°29'0 0.0
2014-Sep-15 06:33N 51°43' W 002°29'0 0.0
2014-Sep-15 05:33N 51°43' W 002°29'0 0.0
2014-Sep-15 04:33N 51°43' W 002°29'0 0.0
2014-Sep-15 03:33N 51°43' W 002°29'0 0.0
2014-Sep-15 02:33N 51°43' W 002°29'0 0.0
2014-Sep-15 01:15N 51°43' W 002°29'0 0.3
2014-Sep-15 00:33N 51°43' W 002°29'0 0.0
2014-Sep-14 23:28N 51°43' W 002°29'3 2.7
2014-Sep-14 22:32N 51°41' W 002°32'1010.4
2014-Sep-14 21:33N 51°34' W 002°42'9 9.1
2014-Sep-14 20:33N 51°28' W 002°54'1010.4
2014-Sep-14 19:33N 51°23' W 003°09'4 3.6
2014-Sep-14 18:26N 51°22' W 003°15'0 0.1
2014-Sep-14 17:11N 51°22' W 003°15'0 0.2
2014-Sep-14 16:26N 51°22' W 003°15'0 0.0
2014-Sep-14 15:29N 51°22' W 003°15'0 0.0
2014-Sep-14 14:29N 51°22' W 003°15'0 0.0
2014-Sep-14 13:32N 51°22' W 003°15'0 0.0
2014-Sep-14 12:32N 51°22' W 003°15'0 0.0
2014-Sep-14 11:32N 51°22' W 003°15'1 0.7
2014-Sep-14 10:34N 51°21' W 003°16'77 8.6
2014-Sep-14 01:33N 50°47' W 005°06'157 8.7
2014-Sep-13 07:29N 48°14' W 005°56'910.3
2014-Sep-13 06:34N 48°05' W 005°53'1111.0
2014-Sep-13 05:33N 47°55' W 005°48'1211.7
2014-Sep-13 04:33N 47°43' W 005°42'1211.4
2014-Sep-13 03:33N 47°32' W 005°37'1111.2
2014-Sep-13 02:34N 47°22' W 005°32'1211.8
2014-Sep-13 01:34N 47°11' W 005°27'1111.1
2014-Sep-13 00:33N 46°60' W 005°23'17210.7
2014-Sep-12 08:27N 44°17' W 004°07'4210.7
2014-Sep-12 04:33N 43°37' W 003°48'10 1.2
2014-Sep-11 20:04N 43°27' W 003°49'0 0.0
2014-Sep-11 19:31N 43°27' W 003°49'  
Track history (hours):
 
Tides and Currents Weather Stations Pressure Air Temp Water Temp Dewpoint Dewpoint Depression Visibility Wind Speed Wind Dir Waves Ship Positions

Blue Bay

Last reported at 2014-Sep-17 04:30 UTC. Time now 2014-Sep-17 05:31 UTC.
Position N 51°43' W 002°29'.

Length 89 m; draft 3.5 m.

Type: Cargo ship. MMSI: 304519000.

Date/timePositionNaut miles runAvg speedWind from/ knotsBaromVisibWave heightAir tempDewpointWater temp
2014-Sep-17 04:30N 51°43' W 002°29'0 0.0
2014-Sep-17 03:33N 51°43' W 002°29'0 0.0
2014-Sep-17 02:33N 51°43' W 002°29'0 0.0
2014-Sep-17 01:33N 51°43' W 002°29'0 0.0
2014-Sep-17 00:21N 51°43' W 002°29'0 0.0
2014-Sep-16 23:33N 51°43' W 002°29'0 0.0
2014-Sep-16 22:30N 51°43' W 002°29'0 0.0
2014-Sep-16 21:33N 51°43' W 002°29'0 0.2
2014-Sep-16 20:27N 51°43' W 002°29'0 0.0
2014-Sep-16 19:27N 51°43' W 002°29'0 0.0
2014-Sep-16 18:33N 51°43' W 002°29'0 0.0
2014-Sep-16 17:33N 51°43' W 002°29'0 0.0
2014-Sep-16 16:27N 51°43' W 002°29'0 0.0
2014-Sep-16 15:27N 51°43' W 002°29'0 0.0
2014-Sep-16 14:27N 51°43' W 002°29'0 0.0
2014-Sep-16 13:30N 51°43' W 002°29'0 0.0
2014-Sep-16 12:30N 51°43' W 002°29'0 0.0
2014-Sep-16 11:27N 51°43' W 002°29'0 0.0
2014-Sep-16 10:33N 51°43' W 002°29'0 0.0
2014-Sep-16 09:30N 51°43' W 002°29'0 0.0
2014-Sep-16 08:33N 51°43' W 002°29'0 0.0
2014-Sep-16 07:30N 51°43' W 002°29'0 0.0
2014-Sep-16 06:24N 51°43' W 002°29'0 0.0
2014-Sep-16 05:33N 51°43' W 002°29'0 0.0
2014-Sep-16 04:27N 51°43' W 002°29'0 0.0
2014-Sep-16 03:33N 51°43' W 002°29'0 0.0
2014-Sep-16 02:21N 51°43' W 002°29'0 0.0
2014-Sep-16 01:33N 51°43' W 002°29'0 0.0
2014-Sep-16 00:30N 51°43' W 002°29'0 0.0
2014-Sep-15 23:33N 51°43' W 002°29'0 0.0
2014-Sep-15 22:33N 51°43' W 002°29'0 0.0
2014-Sep-15 21:33N 51°43' W 002°29'0 0.0
2014-Sep-15 20:30N 51°43' W 002°29'0 0.0
2014-Sep-15 19:33N 51°43' W 002°29'0 0.0
2014-Sep-15 18:30N 51°43' W 002°29'0 0.0
2014-Sep-15 17:33N 51°43' W 002°29'0 0.0
2014-Sep-15 16:33N 51°43' W 002°29'0 0.0
2014-Sep-15 15:33N 51°43' W 002°29'0 0.0
2014-Sep-15 14:30N 51°43' W 002°29'0 0.0
2014-Sep-15 13:33N 51°43' W 002°29'0 0.0
2014-Sep-15 12:12N 51°43' W 002°29'0 0.0
2014-Sep-15 11:33N 51°43' W 002°29'0 0.0
2014-Sep-15 10:34N 51°43' W 002°29'0 0.0
2014-Sep-15 09:33N 51°43' W 002°29'0 0.0
2014-Sep-15 08:33N 51°43' W 002°29'0 0.0
2014-Sep-15 07:03N 51°43' W 002°29'0 0.0
2014-Sep-15 06:33N 51°43' W 002°29'0 0.0
2014-Sep-15 05:33N 51°43' W 002°29'0 0.0
2014-Sep-15 04:33N 51°43' W 002°29'0 0.0
2014-Sep-15 03:33N 51°43' W 002°29'0 0.0
2014-Sep-15 02:33N 51°43' W 002°29'0 0.0
2014-Sep-15 01:15N 51°43' W 002°29'0 0.3
2014-Sep-15 00:33N 51°43' W 002°29'0 0.0
2014-Sep-14 23:28N 51°43' W 002°29'3 2.7
2014-Sep-14 22:32N 51°41' W 002°32'1010.4
2014-Sep-14 21:33N 51°34' W 002°42'9 9.1
2014-Sep-14 20:33N 51°28' W 002°54'1010.4
2014-Sep-14 19:33N 51°23' W 003°09'4 3.6
2014-Sep-14 18:26N 51°22' W 003°15'0 0.1
2014-Sep-14 17:11N 51°22' W 003°15'0 0.2
2014-Sep-14 16:26N 51°22' W 003°15'0 0.0
2014-Sep-14 15:29N 51°22' W 003°15'0 0.0
2014-Sep-14 14:29N 51°22' W 003°15'0 0.0
2014-Sep-14 13:32N 51°22' W 003°15'0 0.0
2014-Sep-14 12:32N 51°22' W 003°15'0 0.0
2014-Sep-14 11:32N 51°22' W 003°15'1 0.7
2014-Sep-14 10:34N 51°21' W 003°16'77 8.6
2014-Sep-14 01:33N 50°47' W 005°06'157 8.7
2014-Sep-13 07:29N 48°14' W 005°56'910.3
2014-Sep-13 06:34N 48°05' W 005°53'1111.0
2014-Sep-13 05:33N 47°55' W 005°48'1211.7
2014-Sep-13 04:33N 47°43' W 005°42'1211.4
2014-Sep-13 03:33N 47°32' W 005°37'1111.2
2014-Sep-13 02:34N 47°22' W 005°32'1211.8
2014-Sep-13 01:34N 47°11' W 005°27'1111.1
2014-Sep-13 00:33N 46°60' W 005°23'17210.7
2014-Sep-12 08:27N 44°17' W 004°07'4210.7
2014-Sep-12 04:33N 43°37' W 003°48'10 1.2
2014-Sep-11 20:04N 43°27' W 003°49'0 0.0
2014-Sep-11 19:31N 43°27' W 003°49'  

Dump ship's entire track history